Time;durP1;ratioP1;P1;durP2;ratioP2;P2;SDS_P1;SDS_P2;PMS_P1;PMS_P2;Temp;Humidity;BMP_temperature;BMP_pressure;BME280_temperature;BME280_humidity;BME280_pressure;Samples;Min_cycle;Max_cycle;Signal;HPM_P1;HPM_P2
2023/08/24 00:02:07;;;;;;;4.47;1.73;;;;;;;;;;5057950;28;20039;-66
2023/08/24 00:04:33;;;;;;;4.82;1.98;;;;;;;;;;5057604;28;20482;-67
2023/08/24 00:07:00;;;;;;;4.85;2.00;;;;;;;;;;5056627;28;20028;-67
2023/08/24 00:09:26;;;;;;;5.60;3.25;;;;;;;;;;5057577;28;20110;-66
2023/08/24 00:11:53;;;;;;;9.38;4.32;;;;;;;;;;5057263;28;21816;-67
2023/08/24 00:14:19;;;;;;;8.68;4.05;;;;;;;;;;5057680;28;20565;-67
2023/08/24 00:16:45;;;;;;;7.47;3.67;;;;;;;;;;5056195;28;20047;-66
2023/08/24 00:19:11;;;;;;;5.97;3.60;;;;;;;;;;5058545;28;20107;-67
2023/08/24 00:21:37;;;;;;;5.70;3.55;;;;;;;;;;5057270;28;20032;-67
2023/08/24 00:24:03;;;;;;;6.07;3.58;;;;;;;;;;5056865;28;20032;-67
2023/08/24 00:26:29;;;;;;;5.97;3.70;;;;;;;;;;5057125;28;20163;-67
2023/08/24 00:28:56;;;;;;;5.65;3.67;;;;;;;;;;5059290;28;20107;-67
2023/08/24 00:31:22;;;;;;;5.75;3.60;;;;;;;;;;5057365;28;20039;-67
2023/08/24 00:33:50;;;;;;;5.32;3.67;;;;;;;;;;5054939;28;20023;-67
2023/08/24 00:36:17;;;;;;;5.30;3.33;;;;;;;;;;5056157;28;20123;-63
2023/08/24 00:38:44;;;;;;;7.20;3.50;;;;;;;;;;5056114;28;20047;-63
2023/08/24 00:41:10;;;;;;;6.72;3.22;;;;;;;;;;5056274;28;21864;-63
2023/08/24 00:43:36;;;;;;;4.13;2.50;;;;;;;;;;5057567;28;20070;-63
2023/08/24 00:46:03;;;;;;;3.78;2.03;;;;;;;;;;5056829;28;20044;-63
2023/08/24 00:48:30;;;;;;;3.70;2.08;;;;;;;;;;5058046;28;20094;-66
2023/08/24 00:50:57;;;;;;;2.40;1.73;;;;;;;;;;5057742;28;20036;-66
2023/08/24 00:53:26;;;;;;;2.92;1.98;;;;;;;;;;5059085;28;21892;-66
2023/08/24 00:55:52;;;;;;;7.28;3.33;;;;;;;;;;5057421;28;20040;-66
2023/08/24 00:58:19;;;;;;;5.60;3.95;;;;;;;;;;5058391;28;20036;-66
2023/08/24 01:00:45;;;;;;;4.07;1.98;;;;;;;;;;5059652;28;20081;-66
2023/08/24 01:03:11;;;;;;;3.45;2.13;;;;;;;;;;5060188;28;20494;-67
2023/08/24 01:05:37;;;;;;;4.53;2.30;;;;;;;;;;5060442;28;20751;-63
2023/08/24 01:08:04;;;;;;;4.65;2.53;;;;;;;;;;5060988;28;20031;-63
2023/08/24 01:10:35;;;;;;;5.25;3.13;;;;;;;;;;5060215;28;20103;-63
2023/08/24 01:13:04;;;;;;;5.47;3.40;;;;;;;;;;5061691;28;20139;-62
2023/08/24 01:15:38;;;;;;;4.55;2.50;;;;;;;;;;5059393;28;20056;-62
2023/08/24 01:18:06;;;;;;;4.53;2.50;;;;;;;;;;5061512;28;20020;-62
2023/08/24 01:20:33;;;;;;;4.53;2.25;;;;;;;;;;5061713;28;20028;-63
2023/08/24 01:23:11;;;;;;;3.17;1.75;;;;;;;;;;5062123;28;20028;-62
2023/08/24 01:25:41;;;;;;;6.07;1.50;;;;;;;;;;5060865;28;20111;-63
2023/08/24 01:28:07;;;;;;;3.22;1.40;;;;;;;;;;5061608;28;20134;-63
2023/08/24 01:30:35;;;;;;;2.75;1.60;;;;;;;;;;5059174;28;20072;-66
2023/08/24 01:33:04;;;;;;;2.90;1.55;;;;;;;;;;5061793;28;20113;-66
2023/08/24 01:35:33;;;;;;;4.35;2.10;;;;;;;;;;5061205;28;20024;-66
2023/08/24 01:38:02;;;;;;;6.03;2.25;;;;;;;;;;5061286;28;20147;-63
2023/08/24 01:40:36;;;;;;;5.43;2.97;;;;;;;;;;5061784;28;20027;-63
2023/08/24 01:43:06;;;;;;;7.80;3.63;;;;;;;;;;5059663;28;20060;-63
2023/08/24 01:45:33;;;;;;;5.93;3.45;;;;;;;;;;5058143;28;20392;-63
2023/08/24 01:48:04;;;;;;;6.05;3.60;;;;;;;;;;5060530;28;20048;-63
2023/08/24 01:50:30;;;;;;;5.10;3.15;;;;;;;;;;5060918;28;20016;-63
2023/08/24 01:52:56;;;;;;;6.57;3.08;;;;;;;;;;5060918;28;20074;-63
2023/08/24 01:55:23;;;;;;;7.00;3.65;;;;;;;;;;5060744;28;20108;-63
2023/08/24 01:57:50;;;;;;;7.18;4.00;;;;;;;;;;5060034;28;20033;-62
2023/08/24 02:00:16;;;;;;;6.63;3.67;;;;;;;;;;5061023;28;20866;-63
2023/08/24 02:02:43;;;;;;;5.50;3.63;;;;;;;;;;5060337;28;20040;-63
2023/08/24 02:05:09;;;;;;;8.40;3.67;;;;;;;;;;5061023;28;20159;-63
2023/08/24 02:07:35;;;;;;;5.78;3.40;;;;;;;;;;5060235;28;20158;-63
2023/08/24 02:10:01;;;;;;;7.25;3.85;;;;;;;;;;5060864;28;20054;-63
2023/08/24 02:12:28;;;;;;;6.50;4.10;;;;;;;;;;5059168;28;20024;-62
2023/08/24 02:14:54;;;;;;;9.63;4.93;;;;;;;;;;5060629;28;20040;-63
2023/08/24 02:17:20;;;;;;;9.43;4.80;;;;;;;;;;5059346;28;20029;-63
2023/08/24 02:19:46;;;;;;;7.80;4.38;;;;;;;;;;5059893;28;20032;-63
2023/08/24 02:22:12;;;;;;;7.20;4.18;;;;;;;;;;5058970;28;20055;-63
2023/08/24 02:24:39;;;;;;;6.45;4.22;;;;;;;;;;5059448;28;20421;-63
2023/08/24 02:27:08;;;;;;;6.63;4.28;;;;;;;;;;5060014;28;20029;-63
2023/08/24 02:29:34;;;;;;;6.95;4.60;;;;;;;;;;5061248;28;20036;-63
2023/08/24 02:32:00;;;;;;;7.28;4.60;;;;;;;;;;5059766;28;20023;-63
2023/08/24 02:34:26;;;;;;;7.38;5.22;;;;;;;;;;5057110;28;20036;-63
2023/08/24 02:36:57;;;;;;;10.35;4.82;;;;;;;;;;5058295;28;20056;-63
2023/08/24 02:39:23;;;;;;;8.52;5.30;;;;;;;;;;5057650;28;20043;-67
2023/08/24 02:41:49;;;;;;;8.80;4.95;;;;;;;;;;5054944;28;21549;-66
2023/08/24 02:44:15;;;;;;;7.18;4.60;;;;;;;;;;5059333;28;20075;-67
2023/08/24 02:46:44;;;;;;;8.90;5.10;;;;;;;;;;5058949;28;20032;-67
2023/08/24 02:49:10;;;;;;;7.50;5.38;;;;;;;;;;5058302;28;20048;-66
2023/08/24 02:51:36;;;;;;;8.63;4.75;;;;;;;;;;5057206;28;20071;-67
2023/08/24 02:54:02;;;;;;;10.65;4.63;;;;;;;;;;5059627;28;20075;-67
2023/08/24 02:56:31;;;;;;;7.00;3.78;;;;;;;;;;5060080;28;20117;-66
2023/08/24 02:58:57;;;;;;;7.72;4.38;;;;;;;;;;5058587;28;20035;-66
2023/08/24 03:01:23;;;;;;;6.38;4.07;;;;;;;;;;5058455;28;20040;-67
2023/08/24 03:03:49;;;;;;;6.93;4.18;;;;;;;;;;5058532;28;20032;-67
2023/08/24 03:06:15;;;;;;;6.57;4.30;;;;;;;;;;5059764;28;20032;-67
2023/08/24 03:08:41;;;;;;;7.47;4.20;;;;;;;;;;5059108;28;20032;-66
2023/08/24 03:11:07;;;;;;;7.95;3.78;;;;;;;;;;5059459;28;20028;-66
2023/08/24 03:13:36;;;;;;;6.95;3.80;;;;;;;;;;5060380;28;20028;-66
2023/08/24 03:16:05;;;;;;;6.70;4.00;;;;;;;;;;5059283;28;20052;-66
2023/08/24 03:18:32;;;;;;;8.02;3.95;;;;;;;;;;5059705;28;20073;-67
2023/08/24 03:20:58;;;;;;;8.63;5.07;;;;;;;;;;5058091;28;20028;-67
2023/08/24 03:23:24;;;;;;;7.90;5.13;;;;;;;;;;5058101;28;21041;-66
2023/08/24 03:25:50;;;;;;;13.02;5.55;;;;;;;;;;5058432;28;20134;-67
2023/08/24 03:28:16;;;;;;;7.93;4.72;;;;;;;;;;5058879;28;20062;-66
2023/08/24 03:30:49;;;;;;;12.95;6.07;;;;;;;;;;5059499;28;20038;-66
2023/08/24 03:33:16;;;;;;;13.50;6.90;;;;;;;;;;5057566;28;20374;-67
2023/08/24 03:35:44;;;;;;;8.68;5.18;;;;;;;;;;5058835;28;20023;-67
2023/08/24 03:38:10;;;;;;;11.75;7.00;;;;;;;;;;5057884;28;20041;-67
2023/08/24 03:40:36;;;;;;;15.52;6.53;;;;;;;;;;5059228;28;20032;-67
2023/08/24 03:43:03;;;;;;;12.35;5.78;;;;;;;;;;5057912;28;20035;-67
2023/08/24 03:45:29;;;;;;;10.00;5.10;;;;;;;;;;5058248;28;20047;-66
2023/08/24 03:47:55;;;;;;;8.35;5.78;;;;;;;;;;5059114;28;20886;-67
2023/08/24 03:50:25;;;;;;;10.00;5.60;;;;;;;;;;5057373;28;20024;-67
2023/08/24 03:52:54;;;;;;;10.70;5.80;;;;;;;;;;5057287;28;20024;-67
2023/08/24 03:55:20;;;;;;;9.23;5.65;;;;;;;;;;5058717;28;20078;-67
2023/08/24 03:57:46;;;;;;;9.13;5.38;;;;;;;;;;5059150;28;20039;-67
2023/08/24 04:00:14;;;;;;;9.40;5.38;;;;;;;;;;5058697;28;20032;-67
2023/08/24 04:02:41;;;;;;;9.82;5.70;;;;;;;;;;5057027;28;20058;-66
2023/08/24 04:05:07;;;;;;;10.48;5.47;;;;;;;;;;5058599;28;20039;-67
2023/08/24 04:07:42;;;;;;;11.25;5.95;;;;;;;;;;5057978;28;20040;-67
2023/08/24 04:10:09;;;;;;;7.82;5.32;;;;;;;;;;5056769;28;20047;-67
2023/08/24 04:12:35;;;;;;;11.27;5.90;;;;;;;;;;5057584;28;20142;-67
2023/08/24 04:15:01;;;;;;;9.70;5.90;;;;;;;;;;5057150;28;20032;-67
2023/08/24 04:17:27;;;;;;;7.78;5.32;;;;;;;;;;5057609;28;20936;-67
2023/08/24 04:19:54;;;;;;;10.85;5.68;;;;;;;;;;5051921;28;21645;-66
2023/08/24 04:22:20;;;;;;;8.93;5.10;;;;;;;;;;5056442;28;20036;-67
2023/08/24 04:24:46;;;;;;;11.45;5.95;;;;;;;;;;5058339;28;20028;-67
2023/08/24 04:27:12;;;;;;;9.98;5.97;;;;;;;;;;5058323;28;20937;-66
2023/08/24 04:29:38;;;;;;;11.68;5.35;;;;;;;;;;5057238;28;20391;-67
2023/08/24 04:32:04;;;;;;;13.13;5.85;;;;;;;;;;5056029;28;20032;-67
2023/08/24 04:34:30;;;;;;;8.88;4.97;;;;;;;;;;5058499;28;20032;-66
2023/08/24 04:36:56;;;;;;;8.73;4.75;;;;;;;;;;5057636;28;20036;-67
2023/08/24 04:39:22;;;;;;;13.07;5.38;;;;;;;;;;5062590;28;21611;-67
2023/08/24 04:41:48;;;;;;;12.02;5.63;;;;;;;;;;5062120;28;20615;-66
2023/08/24 04:44:14;;;;;;;8.05;5.28;;;;;;;;;;5062935;28;20040;-67
2023/08/24 04:46:40;;;;;;;8.82;5.55;;;;;;;;;;5060935;28;20032;-66
2023/08/24 04:49:06;;;;;;;8.93;5.10;;;;;;;;;;5060382;28;20044;-67
2023/08/24 04:51:32;;;;;;;11.65;5.53;;;;;;;;;;5059877;28;20036;-67
2023/08/24 04:53:58;;;;;;;11.73;5.32;;;;;;;;;;5062440;28;20134;-66
2023/08/24 04:56:24;;;;;;;8.45;4.93;;;;;;;;;;5060528;28;20075;-67
2023/08/24 04:58:56;;;;;;;9.65;5.47;;;;;;;;;;5061073;28;20148;-66
2023/08/24 05:01:22;;;;;;;8.05;4.75;;;;;;;;;;5060823;28;20165;-66
2023/08/24 05:03:48;;;;;;;12.05;5.97;;;;;;;;;;5062085;28;20036;-66
2023/08/24 05:06:14;;;;;;;9.43;5.15;;;;;;;;;;5059314;28;20106;-66
2023/08/24 05:08:40;;;;;;;10.70;5.57;;;;;;;;;;5062149;28;20123;-67
2023/08/24 05:11:13;;;;;;;8.85;5.40;;;;;;;;;;5062850;28;21866;-66
2023/08/24 05:13:40;;;;;;;11.57;5.60;;;;;;;;;;5060185;28;20118;-66
2023/08/24 05:16:06;;;;;;;7.38;5.43;;;;;;;;;;5059634;28;20041;-66
2023/08/24 05:18:32;;;;;;;9.30;5.22;;;;;;;;;;5061776;28;20032;-66
2023/08/24 05:20:58;;;;;;;11.38;5.30;;;;;;;;;;5059474;28;20024;-66
2023/08/24 05:23:24;;;;;;;8.00;4.70;;;;;;;;;;5059430;28;20040;-66
2023/08/24 05:25:50;;;;;;;12.55;5.50;;;;;;;;;;5060321;28;20105;-66
2023/08/24 05:28:16;;;;;;;11.75;5.05;;;;;;;;;;5061233;28;20048;-67
2023/08/24 05:30:42;;;;;;;10.77;4.35;;;;;;;;;;5061001;28;20032;-67
2023/08/24 05:33:08;;;;;;;10.80;5.55;;;;;;;;;;5061668;28;20159;-66
2023/08/24 05:35:34;;;;;;;13.85;4.90;;;;;;;;;;5060006;28;20063;-66
2023/08/24 05:38:00;;;;;;;10.52;4.85;;;;;;;;;;5059876;28;20052;-67
2023/08/24 05:40:26;;;;;;;11.43;5.03;;;;;;;;;;5061240;28;20028;-66
2023/08/24 05:42:53;;;;;;;10.60;4.80;;;;;;;;;;5061610;28;20036;-66
2023/08/24 05:45:19;;;;;;;10.10;4.53;;;;;;;;;;5059123;28;20103;-67
2023/08/24 05:47:45;;;;;;;9.73;4.95;;;;;;;;;;5061121;28;20650;-67
2023/08/24 05:50:11;;;;;;;9.65;5.13;;;;;;;;;;5059757;28;20764;-67
2023/08/24 05:52:39;;;;;;;10.80;4.50;;;;;;;;;;5059906;28;20168;-67
2023/08/24 05:55:06;;;;;;;7.70;4.50;;;;;;;;;;5060194;28;20032;-66
2023/08/24 05:57:32;;;;;;;9.93;4.50;;;;;;;;;;5061820;28;20036;-66
2023/08/24 05:59:58;;;;;;;10.95;5.05;;;;;;;;;;5060542;28;20040;-66
2023/08/24 06:02:24;;;;;;;11.52;5.20;;;;;;;;;;5062676;28;20062;-66
2023/08/24 06:04:50;;;;;;;7.18;4.47;;;;;;;;;;5060315;28;20032;-66
2023/08/24 06:07:17;;;;;;;7.65;4.53;;;;;;;;;;5060665;28;20123;-67
2023/08/24 06:09:43;;;;;;;10.27;5.30;;;;;;;;;;5061784;28;20024;-67
2023/08/24 06:12:09;;;;;;;10.73;5.90;;;;;;;;;;5060809;28;20032;-67
2023/08/24 06:14:35;;;;;;;9.35;5.63;;;;;;;;;;5061810;28;20054;-67
2023/08/24 06:17:01;;;;;;;12.40;5.65;;;;;;;;;;5060982;28;20518;-67
2023/08/24 06:19:27;;;;;;;9.00;4.85;;;;;;;;;;5061596;28;20104;-67
2023/08/24 06:21:53;;;;;;;9.35;5.57;;;;;;;;;;5053713;28;20084;-66
2023/08/24 06:24:19;;;;;;;11.18;5.50;;;;;;;;;;5049288;28;20035;-66
2023/08/24 06:26:45;;;;;;;10.57;5.40;;;;;;;;;;5049306;28;20051;-66
2023/08/24 06:29:11;;;;;;;9.25;4.95;;;;;;;;;;5051739;28;20024;-66
2023/08/24 06:31:37;;;;;;;9.20;5.53;;;;;;;;;;5051762;28;20109;-67
2023/08/24 06:34:03;;;;;;;11.32;5.63;;;;;;;;;;5051877;28;20036;-67
2023/08/24 06:36:30;;;;;;;7.43;4.30;;;;;;;;;;5051075;28;20515;-67
2023/08/24 06:38:56;;;;;;;9.75;4.63;;;;;;;;;;5049828;28;20425;-67
2023/08/24 06:41:22;;;;;;;9.63;4.78;;;;;;;;;;5051381;28;20033;-66
2023/08/24 06:43:48;;;;;;;11.07;5.30;;;;;;;;;;5051660;28;20036;-66
2023/08/24 06:46:14;;;;;;;7.05;4.05;;;;;;;;;;5049971;28;20082;-67
2023/08/24 06:48:43;;;;;;;7.75;4.03;;;;;;;;;;5050080;28;20040;-66
2023/08/24 06:51:09;;;;;;;8.77;4.30;;;;;;;;;;5047077;28;20117;-66
2023/08/24 06:53:35;;;;;;;7.22;3.53;;;;;;;;;;5051389;28;20024;-66
2023/08/24 06:56:01;;;;;;;9.32;3.33;;;;;;;;;;5050607;28;20067;-66
2023/08/24 06:58:27;;;;;;;10.40;3.45;;;;;;;;;;5046438;28;20097;-67
2023/08/24 07:00:55;;;;;;;9.60;3.10;;;;;;;;;;5048376;28;20034;-67
2023/08/24 07:03:21;;;;;;;7.80;2.70;;;;;;;;;;5048608;28;20067;-66
2023/08/24 07:05:47;;;;;;;6.90;2.60;;;;;;;;;;5047972;28;20035;-66
2023/08/24 07:08:13;;;;;;;7.93;2.58;;;;;;;;;;5048630;28;20511;-67
2023/08/24 07:10:40;;;;;;;5.38;2.70;;;;;;;;;;5049857;28;20033;-67
2023/08/24 07:13:07;;;;;;;8.20;2.30;;;;;;;;;;5048866;28;20024;-67
2023/08/24 07:15:34;;;;;;;10.55;2.50;;;;;;;;;;5049921;28;20151;-67
2023/08/24 07:18:01;;;;;;;7.28;2.03;;;;;;;;;;5050276;28;20081;-67
2023/08/24 07:20:28;;;;;;;7.65;2.63;;;;;;;;;;5050609;28;20027;-67
2023/08/24 07:22:54;;;;;;;9.00;2.15;;;;;;;;;;5049881;28;20498;-67
2023/08/24 07:25:23;;;;;;;6.40;2.15;;;;;;;;;;5050259;28;20486;-67
2023/08/24 07:27:49;;;;;;;5.65;1.95;;;;;;;;;;5049398;28;20035;-67
2023/08/24 07:30:15;;;;;;;8.18;2.35;;;;;;;;;;5050899;28;20032;-67
2023/08/24 07:32:41;;;;;;;7.05;2.00;;;;;;;;;;5049912;28;20072;-67
2023/08/24 07:35:08;;;;;;;6.18;2.45;;;;;;;;;;5050626;28;20028;-67
2023/08/24 07:37:34;;;;;;;6.72;2.38;;;;;;;;;;5050475;28;20578;-67
2023/08/24 07:40:00;;;;;;;6.90;2.42;;;;;;;;;;5050196;28;20569;-63
2023/08/24 07:42:26;;;;;;;6.57;2.45;;;;;;;;;;5050001;28;20032;-63
2023/08/24 07:44:52;;;;;;;8.02;2.50;;;;;;;;;;5049682;28;20067;-62
2023/08/24 07:47:21;;;;;;;8.35;2.15;;;;;;;;;;5048960;28;20036;-63
2023/08/24 07:49:47;;;;;;;10.43;3.13;;;;;;;;;;5049200;28;20048;-63
2023/08/24 07:52:13;;;;;;;5.63;2.67;;;;;;;;;;5049167;28;20095;-63
2023/08/24 07:54:40;;;;;;;7.43;2.80;;;;;;;;;;5049855;28;20106;-63
2023/08/24 07:57:06;;;;;;;7.80;2.92;;;;;;;;;;5048909;28;20040;-63
2023/08/24 07:59:32;;;;;;;5.72;2.50;;;;;;;;;;5048288;28;20040;-63
2023/08/24 08:01:58;;;;;;;7.95;2.33;;;;;;;;;;5047864;28;20036;-63
2023/08/24 08:04:24;;;;;;;9.15;3.55;;;;;;;;;;5050082;28;20786;-63
2023/08/24 08:06:50;;;;;;;8.38;3.28;;;;;;;;;;5048400;28;20036;-63
2023/08/24 08:09:16;;;;;;;7.03;3.13;;;;;;;;;;5048097;28;20058;-63
2023/08/24 08:11:43;;;;;;;7.32;3.45;;;;;;;;;;5049547;28;21660;-63
2023/08/24 08:14:09;;;;;;;7.38;3.22;;;;;;;;;;5050140;28;20027;-63
2023/08/24 08:16:36;;;;;;;12.40;3.90;;;;;;;;;;5049722;28;20514;-63
2023/08/24 08:19:02;;;;;;;9.90;3.10;;;;;;;;;;5049155;28;20035;-63
2023/08/24 08:21:29;;;;;;;7.22;3.63;;;;;;;;;;5048918;28;21882;-63
2023/08/24 08:23:55;;;;;;;6.57;2.95;;;;;;;;;;5047708;28;20592;-63
2023/08/24 08:26:21;;;;;;;15.73;4.22;;;;;;;;;;5049615;28;20044;-63
2023/08/24 08:28:47;;;;;;;9.25;4.20;;;;;;;;;;5049202;28;20028;-63
2023/08/24 08:31:13;;;;;;;7.90;3.83;;;;;;;;;;5050780;28;20119;-63
2023/08/24 08:33:40;;;;;;;8.25;3.75;;;;;;;;;;5049519;28;20066;-63
2023/08/24 08:36:06;;;;;;;8.23;4.45;;;;;;;;;;5048871;28;20122;-63
2023/08/24 08:38:32;;;;;;;8.02;3.30;;;;;;;;;;5048389;28;20064;-63
2023/08/24 08:41:03;;;;;;;8.95;3.83;;;;;;;;;;5048558;28;20036;-63
2023/08/24 08:43:30;;;;;;;7.78;3.90;;;;;;;;;;5047550;28;20017;-63
2023/08/24 08:45:56;;;;;;;6.93;3.17;;;;;;;;;;5048440;28;20082;-63
2023/08/24 08:48:22;;;;;;;8.65;3.92;;;;;;;;;;5048501;28;20048;-63
2023/08/24 08:50:49;;;;;;;7.72;3.90;;;;;;;;;;5048456;28;20032;-63
2023/08/24 08:53:15;;;;;;;8.15;4.53;;;;;;;;;;5049231;28;20711;-63
2023/08/24 08:55:42;;;;;;;8.63;4.32;;;;;;;;;;5048777;28;20032;-63
2023/08/24 08:58:08;;;;;;;8.82;4.38;;;;;;;;;;5049435;28;20044;-63
2023/08/24 09:00:34;;;;;;;7.30;3.88;;;;;;;;;;5049731;28;20084;-63
2023/08/24 09:03:01;;;;;;;10.18;4.35;;;;;;;;;;5050171;28;20178;-63
2023/08/24 09:05:27;;;;;;;9.80;4.18;;;;;;;;;;5048507;28;21427;-63
2023/08/24 09:07:56;;;;;;;9.65;4.50;;;;;;;;;;5047452;28;20041;-63
2023/08/24 09:10:22;;;;;;;8.73;4.20;;;;;;;;;;5046462;28;20037;-63
2023/08/24 09:12:48;;;;;;;8.05;3.88;;;;;;;;;;5046841;28;20403;-63
2023/08/24 09:15:14;;;;;;;13.45;4.65;;;;;;;;;;5047113;28;20028;-63
2023/08/24 09:17:44;;;;;;;9.60;4.35;;;;;;;;;;5045137;28;20036;-63
2023/08/24 09:20:11;;;;;;;12.23;5.03;;;;;;;;;;5046339;28;20039;-63
2023/08/24 09:22:39;;;;;;;11.50;4.47;;;;;;;;;;5052328;28;20708;-63
2023/08/24 09:25:06;;;;;;;7.20;4.43;;;;;;;;;;5052019;28;20059;-63
2023/08/24 09:27:32;;;;;;;9.18;4.85;;;;;;;;;;5052740;28;20164;-63
2023/08/24 09:29:58;;;;;;;10.35;3.90;;;;;;;;;;5052522;28;20063;-63
2023/08/24 09:32:25;;;;;;;9.93;3.92;;;;;;;;;;5052435;28;20028;-63
2023/08/24 09:34:51;;;;;;;10.73;4.30;;;;;;;;;;5052582;28;20574;-63
2023/08/24 09:37:17;;;;;;;9.15;4.20;;;;;;;;;;5053312;28;20558;-63
2023/08/24 09:39:45;;;;;;;10.48;4.80;;;;;;;;;;5053495;28;20050;-63
2023/08/24 09:42:11;;;;;;;10.65;4.35;;;;;;;;;;5054017;28;20032;-63
2023/08/24 09:44:39;;;;;;;9.02;4.55;;;;;;;;;;5052814;28;20068;-63
2023/08/24 09:47:11;;;;;;;9.15;4.30;;;;;;;;;;5054912;28;20044;-67
2023/08/24 09:49:37;;;;;;;9.47;4.27;;;;;;;;;;5051480;28;20048;-68
2023/08/24 09:52:06;;;;;;;10.48;4.63;;;;;;;;;;5054531;28;20711;-67
2023/08/24 09:54:35;;;;;;;10.82;5.03;;;;;;;;;;5053633;28;20036;-67
2023/08/24 09:57:03;;;;;;;9.10;4.70;;;;;;;;;;5051788;28;20028;-67
2023/08/24 09:59:31;;;;;;;8.52;4.30;;;;;;;;;;5051791;28;20040;-67
2023/08/24 10:01:57;;;;;;;9.68;4.68;;;;;;;;;;5050402;28;20040;-67
2023/08/24 10:04:26;;;;;;;8.52;4.00;;;;;;;;;;5051116;28;20051;-67
2023/08/24 10:06:56;;;;;;;9.45;4.38;;;;;;;;;;5050398;28;20036;-67
2023/08/24 10:09:32;;;;;;;9.40;4.35;;;;;;;;;;5049558;28;20919;-67
2023/08/24 10:12:00;;;;;;;8.27;4.85;;;;;;;;;;5049732;28;20079;-67
2023/08/24 10:14:32;;;;;;;8.77;4.63;;;;;;;;;;5046393;28;20067;-67
2023/08/24 10:16:58;;;;;;;10.70;4.65;;;;;;;;;;5050069;28;20127;-63
2023/08/24 10:19:25;;;;;;;10.73;5.03;;;;;;;;;;5049304;28;20059;-63
2023/08/24 10:21:51;;;;;;;12.27;5.70;;;;;;;;;;5046191;28;20085;-63
2023/08/24 10:24:17;;;;;;;9.63;4.97;;;;;;;;;;5048048;28;20051;-63
2023/08/24 10:26:44;;;;;;;11.52;5.30;;;;;;;;;;5050193;28;20032;-63
2023/08/24 10:29:10;;;;;;;10.95;4.97;;;;;;;;;;5048893;28;20051;-63
2023/08/24 10:31:39;;;;;;;10.93;5.57;;;;;;;;;;5049772;28;20532;-63
2023/08/24 10:34:06;;;;;;;11.43;5.65;;;;;;;;;;5049555;28;20078;-63
2023/08/24 10:36:33;;;;;;;12.55;6.15;;;;;;;;;;5049669;28;20044;-63
2023/08/24 10:39:05;;;;;;;8.35;5.40;;;;;;;;;;5047855;28;20671;-67
2023/08/24 10:41:46;;;;;;;9.23;5.53;;;;;;;;;;5049752;28;20879;-67
2023/08/24 10:44:20;;;;;;;10.93;5.50;;;;;;;;;;5048990;28;20725;-67
2023/08/24 10:47:08;;;;;;;13.73;5.85;;;;;;;;;;5048460;28;20032;-63
2023/08/24 10:49:35;;;;;;;11.98;5.97;;;;;;;;;;5049370;28;20068;-62
2023/08/24 10:52:21;;;;;;;10.30;5.57;;;;;;;;;;5049866;28;20033;-63
2023/08/24 10:54:50;;;;;;;9.55;5.05;;;;;;;;;;5048695;28;20082;-63
2023/08/24 10:57:20;;;;;;;15.25;5.68;;;;;;;;;;5049273;28;21011;-66
2023/08/24 10:59:58;;;;;;;7.97;5.32;;;;;;;;;;5050058;28;20027;-67
2023/08/24 11:02:24;;;;;;;12.38;5.45;;;;;;;;;;5051078;28;20398;-67
2023/08/24 11:05:18;;;;;;;15.32;6.00;;;;;;;;;;5050381;28;20060;-65
2023/08/24 11:07:51;;;;;;;13.45;5.03;;;;;;;;;;5051094;28;20156;-66
2023/08/24 11:10:18;;;;;;;13.23;5.43;;;;;;;;;;5048325;28;20024;-66
2023/08/24 11:13:02;;;;;;;10.40;5.55;;;;;;;;;;5049938;28;20042;-63
2023/08/24 11:15:31;;;;;;;14.52;5.68;;;;;;;;;;5048872;28;20086;-63
2023/08/24 11:18:13;;;;;;;10.20;5.50;;;;;;;;;;5049112;28;20069;-63
2023/08/24 11:20:45;;;;;;;10.93;5.90;;;;;;;;;;5047370;28;20115;-63
2023/08/24 11:23:12;;;;;;;8.90;5.93;;;;;;;;;;5050102;28;20171;-63
2023/08/24 11:25:38;;;;;;;10.75;6.07;;;;;;;;;;5048865;28;20044;-62
2023/08/24 11:28:05;;;;;;;10.95;5.93;;;;;;;;;;5048923;28;20040;-63
2023/08/24 11:30:32;;;;;;;13.45;6.68;;;;;;;;;;5049660;28;20159;-63
2023/08/24 11:32:59;;;;;;;12.43;7.30;;;;;;;;;;5050524;28;20024;-62
2023/08/24 11:35:25;;;;;;;10.52;6.72;;;;;;;;;;5050295;28;20029;-63
2023/08/24 11:37:52;;;;;;;18.05;6.72;;;;;;;;;;5051274;28;20078;-67
2023/08/24 11:40:20;;;;;;;11.75;6.88;;;;;;;;;;5049191;28;20040;-67
2023/08/24 11:42:46;;;;;;;11.90;6.00;;;;;;;;;;5049981;28;20386;-63
2023/08/24 11:45:13;;;;;;;11.35;6.28;;;;;;;;;;5050039;28;20032;-63
2023/08/24 11:47:39;;;;;;;10.75;6.68;;;;;;;;;;5050730;28;20039;-62
2023/08/24 11:50:05;;;;;;;9.88;6.18;;;;;;;;;;5049695;28;20075;-62
2023/08/24 11:52:35;;;;;;;15.18;7.82;;;;;;;;;;5050981;28;20033;-63
2023/08/24 11:55:01;;;;;;;11.98;7.03;;;;;;;;;;5049315;28;20028;-63
2023/08/24 11:57:27;;;;;;;9.57;6.60;;;;;;;;;;5050789;28;20101;-63
2023/08/24 11:59:54;;;;;;;10.95;6.65;;;;;;;;;;5049898;28;20037;-63
2023/08/24 12:02:21;;;;;;;13.52;7.05;;;;;;;;;;5049022;28;20032;-63
2023/08/24 12:04:49;;;;;;;15.32;7.53;;;;;;;;;;5051271;28;20081;-63
2023/08/24 12:07:17;;;;;;;11.27;7.47;;;;;;;;;;5052002;28;20044;-63
2023/08/24 12:09:43;;;;;;;11.10;7.05;;;;;;;;;;5049756;28;20028;-63
2023/08/24 12:12:13;;;;;;;12.05;8.07;;;;;;;;;;5050552;28;20201;-63
2023/08/24 12:14:46;;;;;;;14.82;7.38;;;;;;;;;;5051136;28;20054;-63
2023/08/24 12:17:12;;;;;;;12.10;7.97;;;;;;;;;;5050780;28;20371;-63
2023/08/24 12:19:43;;;;;;;14.07;8.35;;;;;;;;;;5050443;28;20058;-63
2023/08/24 12:22:13;;;;;;;12.73;7.55;;;;;;;;;;5048702;28;20039;-63
2023/08/24 12:24:44;;;;;;;11.45;8.13;;;;;;;;;;5049457;28;20047;-63
2023/08/24 12:27:18;;;;;;;12.00;7.60;;;;;;;;;;5050502;28;20440;-63
2023/08/24 12:29:50;;;;;;;13.43;8.77;;;;;;;;;;5048694;28;20493;-63
2023/08/24 12:32:19;;;;;;;13.85;8.25;;;;;;;;;;5050411;28;20093;-63
2023/08/24 12:34:45;;;;;;;12.07;8.77;;;;;;;;;;5049448;28;20064;-63
2023/08/24 12:37:12;;;;;;;13.95;8.88;;;;;;;;;;5049284;28;20042;-66
2023/08/24 12:39:39;;;;;;;11.70;8.75;;;;;;;;;;5049297;28;20032;-66
2023/08/24 12:42:06;;;;;;;12.60;8.18;;;;;;;;;;5050001;28;20159;-66
2023/08/24 12:44:32;;;;;;;11.55;7.65;;;;;;;;;;5049021;28;20411;-66
2023/08/24 12:46:59;;;;;;;11.18;8.23;;;;;;;;;;5048515;28;20087;-66
2023/08/24 12:49:25;;;;;;;12.02;8.48;;;;;;;;;;5049592;28;21144;-66
2023/08/24 12:51:51;;;;;;;12.52;9.07;;;;;;;;;;5048469;28;20031;-63
2023/08/24 12:54:17;;;;;;;15.68;9.45;;;;;;;;;;5049407;28;20051;-63
2023/08/24 12:56:43;;;;;;;13.38;8.57;;;;;;;;;;5054237;28;20043;-63
2023/08/24 12:59:09;;;;;;;16.17;9.55;;;;;;;;;;5052421;28;20032;-63
2023/08/24 13:01:42;;;;;;;13.95;9.02;;;;;;;;;;5050707;28;20031;-63
2023/08/24 13:04:08;;;;;;;16.58;11.15;;;;;;;;;;5053084;28;20024;-67
2023/08/24 13:06:34;;;;;;;16.70;10.55;;;;;;;;;;5051505;28;21563;-66
2023/08/24 13:09:03;;;;;;;14.07;10.05;;;;;;;;;;5050672;28;20851;-67
2023/08/24 13:11:29;;;;;;;15.55;8.52;;;;;;;;;;5053046;28;20044;-67
2023/08/24 13:13:55;;;;;;;14.10;10.57;;;;;;;;;;5053469;28;20020;-66
2023/08/24 13:16:21;;;;;;;13.27;9.75;;;;;;;;;;5052609;28;20044;-67
2023/08/24 13:18:47;;;;;;;18.65;11.70;;;;;;;;;;5054232;28;20036;-67
2023/08/24 13:21:13;;;;;;;13.32;9.52;;;;;;;;;;5051150;28;20086;-67
2023/08/24 13:23:40;;;;;;;13.02;11.23;;;;;;;;;;5051251;28;20474;-67
2023/08/24 13:26:06;;;;;;;14.10;10.40;;;;;;;;;;5050784;28;20043;-67
2023/08/24 13:28:32;;;;;;;15.35;11.77;;;;;;;;;;5052090;28;21298;-67
2023/08/24 13:30:58;;;;;;;14.38;10.05;;;;;;;;;;5051663;28;20035;-67
2023/08/24 13:33:24;;;;;;;13.68;10.88;;;;;;;;;;5052375;28;20040;-67
2023/08/24 13:35:50;;;;;;;20.00;12.63;;;;;;;;;;5054452;28;20032;-67
2023/08/24 13:38:17;;;;;;;12.85;11.18;;;;;;;;;;5052449;28;20568;-67
2023/08/24 13:40:43;;;;;;;15.50;12.02;;;;;;;;;;5052839;28;20212;-67
2023/08/24 13:43:09;;;;;;;15.93;13.20;;;;;;;;;;5054273;28;20032;-63
2023/08/24 13:45:35;;;;;;;15.95;11.43;;;;;;;;;;5053976;28;20040;-63
2023/08/24 13:48:02;;;;;;;21.17;13.23;;;;;;;;;;5054436;28;20074;-63
2023/08/24 13:50:28;;;;;;;17.80;13.77;;;;;;;;;;5048834;28;20048;-63
2023/08/24 13:52:55;;;;;;;19.33;13.45;;;;;;;;;;5053731;28;20033;-63
2023/08/24 13:55:21;;;;;;;15.45;13.63;;;;;;;;;;5052377;28;20029;-63
2023/08/24 13:57:47;;;;;;;20.90;14.07;;;;;;;;;;5053590;28;20055;-63
2023/08/24 14:00:14;;;;;;;16.58;12.77;;;;;;;;;;5052087;28;20051;-63
2023/08/24 14:02:40;;;;;;;14.45;11.68;;;;;;;;;;5052999;28;20031;-63
2023/08/24 14:05:09;;;;;;;13.52;11.82;;;;;;;;;;5050402;28;20039;-63
2023/08/24 14:07:35;;;;;;;20.30;11.45;;;;;;;;;;5051217;28;20047;-63
2023/08/24 14:10:01;;;;;;;14.95;11.68;;;;;;;;;;5051753;28;20028;-63
2023/08/24 14:12:28;;;;;;;16.45;12.55;;;;;;;;;;5051828;28;20032;-63
2023/08/24 14:14:54;;;;;;;13.63;11.57;;;;;;;;;;5052608;28;20059;-63
2023/08/24 14:17:20;;;;;;;16.38;12.70;;;;;;;;;;5052805;28;20119;-63
2023/08/24 14:19:46;;;;;;;14.70;11.30;;;;;;;;;;5052544;28;20145;-63
2023/08/24 14:22:12;;;;;;;14.77;11.43;;;;;;;;;;5050289;28;20040;-63
2023/08/24 14:24:38;;;;;;;15.57;12.32;;;;;;;;;;5051419;28;20047;-63
2023/08/24 14:27:04;;;;;;;12.63;10.63;;;;;;;;;;5052840;28;20119;-63
2023/08/24 14:29:30;;;;;;;13.70;9.90;;;;;;;;;;5052346;28;20089;-63
2023/08/24 14:31:56;;;;;;;16.38;10.88;;;;;;;;;;5050886;28;20028;-63
2023/08/24 14:34:22;;;;;;;14.55;10.35;;;;;;;;;;5051769;28;20490;-63
2023/08/24 14:36:48;;;;;;;14.60;10.05;;;;;;;;;;5052568;28;20252;-63